Kine — C6WT4 — position and weather

sailwx.info

Track history (hours):
 
Tides and Currents Weather Stations Pressure Air Temp Water Temp Dewpoint Dewpoint Depression Visibility Wind Speed Wind Dir Waves Ship Positions

Kine

Last reported at 2016-Jun-30 08:33 UTC. Time now 2016-Jun-30 08:49 UTC.
Position N 58°59' E 005°33'.

Length 89 m; draft 5 m.

Type: Cargo ship. MMSI: 311117000.

Date/timePositionNaut miles runAvg speedWind from/ knotsBaromVisibWave heightAir tempDewpointWater temp
2016-Jun-30 08:33N 58°59' E 005°33'8 8.2
2016-Jun-30 07:33N 58°51' E 005°30'9 9.4
2016-Jun-30 06:33N 58°42' E 005°27'1110.7
2016-Jun-30 05:33N 58°31' E 005°33'1010.2
2016-Jun-30 04:33N 58°21' E 005°37'180 9.8
2016-Jun-29 10:11N 55°27' E 006°57'16 9.9
2016-Jun-29 08:34N 55°11' E 007°04'10 9.9
2016-Jun-29 07:33N 55°01' E 007°07'1010.1
2016-Jun-29 06:33N 54°52' E 007°11'20 9.8
2016-Jun-29 04:33N 54°32' E 007°20'9 9.2
2016-Jun-29 03:33N 54°23' E 007°23'9 9.0
2016-Jun-29 02:33N 54°15' E 007°27'9 8.9
2016-Jun-29 01:33N 54°07' E 007°33'9 9.3
2016-Jun-29 00:33N 53°59' E 007°40'9 8.6
2016-Jun-28 23:27N 53°52' E 007°53'1010.4
2016-Jun-28 22:30N 53°48' E 008°08'1212.4
2016-Jun-28 21:33N 53°40' E 008°22'1111.1
2016-Jun-28 20:33N 53°31' E 008°32'1110.9
2016-Jun-28 19:33N 53°20' E 008°30'9 8.7
2016-Jun-28 18:33N 53°11' E 008°32'8 8.0
2016-Jun-28 17:34N 53°07' E 008°43'2 2.2
2016-Jun-28 16:31N 53°06' E 008°46'0 0.0
2016-Jun-28 15:31N 53°06' E 008°46'0 0.0
2016-Jun-28 14:31N 53°06' E 008°46'0 0.0
2016-Jun-28 13:31N 53°06' E 008°46'0 0.0
2016-Jun-28 12:31N 53°06' E 008°46'0 0.0
2016-Jun-28 11:31N 53°06' E 008°46'0 0.0
2016-Jun-28 10:31N 53°06' E 008°46'0 0.0
2016-Jun-28 09:31N 53°06' E 008°46'0 0.0
2016-Jun-28 08:31N 53°06' E 008°46'0 0.0
2016-Jun-28 07:31N 53°06' E 008°46'0 0.0
2016-Jun-28 06:31N 53°06' E 008°46'8 4.1
2016-Jun-28 04:34N 53°10' E 008°35'9 8.7
2016-Jun-28 03:33N 53°18' E 008°29'1010.2
2016-Jun-28 02:33N 53°29' E 008°30'7 6.9
2016-Jun-28 01:34N 53°35' E 008°31'8 8.0
2016-Jun-28 00:33N 53°41' E 008°21'8 8.0
2016-Jun-27 23:33N 53°46' E 008°11'8 7.7
2016-Jun-27 22:33N 53°51' E 008°01'5 4.8
2016-Jun-27 21:34N 53°55' E 007°58'9 8.5
2016-Jun-27 20:33N 54°01' E 008°08'1111.3
2016-Jun-27 19:32N 53°59' E 008°28'1010.6
2016-Jun-27 18:33N 53°53' E 008°42'8 8.5
2016-Jun-27 17:33N 53°51' E 008°56'8 7.7
2016-Jun-27 16:33N 53°53' E 009°09'1 1.2
2016-Jun-27 15:31N 53°53' E 009°11'0 0.0
2016-Jun-27 14:31N 53°53' E 009°11'0 0.0
2016-Jun-27 13:31N 53°53' E 009°11'0 0.0
2016-Jun-27 12:31N 53°53' E 009°11'0 0.0
2016-Jun-27 11:31N 53°53' E 009°11'0 0.0
2016-Jun-27 10:31N 53°53' E 009°11'0 0.0
2016-Jun-27 09:31N 53°53' E 009°11'0 0.0
2016-Jun-27 08:31N 53°53' E 009°11'0 0.0
2016-Jun-27 07:28N 53°53' E 009°11'0 0.0
2016-Jun-27 06:28N 53°53' E 009°11'0 0.0
2016-Jun-27 05:31N 53°53' E 009°11'0 0.0
2016-Jun-27 04:25N 53°53' E 009°11'0 0.0
2016-Jun-27 03:28N 53°53' E 009°11'0 0.0
2016-Jun-27 02:31N 53°53' E 009°11'0 0.0
2016-Jun-27 01:31N 53°53' E 009°11'0 0.0
2016-Jun-27 00:31N 53°53' E 009°11'0 0.0
2016-Jun-26 23:31N 53°53' E 009°11'0 0.0
2016-Jun-26 22:31N 53°53' E 009°11'0 0.0
2016-Jun-26 21:28N 53°53' E 009°11'0 0.0
2016-Jun-26 20:31N 53°53' E 009°11'0 0.0
2016-Jun-26 19:31N 53°53' E 009°11'0 0.0
2016-Jun-26 18:28N 53°53' E 009°11'0 0.0
2016-Jun-26 17:28N 53°53' E 009°11'0 0.0
2016-Jun-26 16:31N 53°53' E 009°11'0 0.0
2016-Jun-26 15:28N 53°53' E 009°11'0 0.0
2016-Jun-26 14:28N 53°53' E 009°11'0 0.1
2016-Jun-26 13:33N 53°53' E 009°11'1 0.9
2016-Jun-26 12:31N 53°52' E 009°09'0 0.0
2016-Jun-26 11:31N 53°52' E 009°09'0 0.0
2016-Jun-26 10:34N 53°52' E 009°09'0 0.0
2016-Jun-26 09:25N 53°52' E 009°09'0 0.0
2016-Jun-26 08:31N 53°52' E 009°09'0 0.0
2016-Jun-26 07:25N 53°52' E 009°09'1 0.9
2016-Jun-26 06:34N 53°53' E 009°08'9 9.0
2016-Jun-26 05:34N 53°50' E 008°53'9 8.6
2016-Jun-26 04:33N 53°55' E 008°41'9 9.2
2016-Jun-26 03:33N 53°59' E 008°26'9 9.4
2016-Jun-26 02:33N 53°59' E 008°11'1010.0
2016-Jun-26 01:33N 53°58' E 007°54'10 9.8
2016-Jun-26 00:33N 53°59' E 007°37'10 9.6
2016-Jun-25 23:33N 54°07' E 007°29'10 9.6
2016-Jun-25 22:33N 54°17' E 007°26'10 9.8
2016-Jun-25 21:33N 54°26' E 007°25'10 9.4
2016-Jun-25 20:33N 54°36' E 007°24'13 9.2
2016-Jun-25 19:09N 54°49' E 007°22'5 8.8
2016-Jun-25 18:33N 54°54' E 007°22'9 8.9
2016-Jun-25 17:33N 55°03' E 007°21'9 8.9
2016-Jun-25 16:33N 55°12' E 007°20'9 9.1
2016-Jun-25 15:33N 55°21' E 007°19'9 9.1
2016-Jun-25 14:33N 55°30' E 007°18'9 9.4
2016-Jun-25 13:33N 55°39' E 007°15'138 9.2
2016-Jun-24 22:33N 57°54' E 006°26'8 7.6
2016-Jun-24 21:32N 58°02' E 006°21'9 8.7
2016-Jun-24 20:34N 58°09' E 006°12'9 9.5
2016-Jun-24 19:33N 58°16' E 006°01'9 8.6
2016-Jun-24 18:33N 58°24' E 005°52'5 4.7
2016-Jun-24 17:33N 58°28' E 005°55'0 0.0
2016-Jun-24 16:28N 58°28' E 005°55'0 0.0
2016-Jun-24 15:28N 58°28' E 005°55'0 0.0
2016-Jun-24 14:28N 58°28' E 005°55'0 0.0
2016-Jun-24 13:19N 58°28' E 005°55'0 0.0
2016-Jun-24 12:31N 58°28' E 005°55'0 0.0
2016-Jun-24 11:31N 58°28' E 005°55'2 1.8
2016-Jun-24 10:33N 58°27' E 005°52'9 9.0
2016-Jun-24 09:33N 58°21' E 006°05'6 5.5
2016-Jun-24 08:33N 58°16' E 006°05'30510.1
2016-Jun-23 02:26N 54°06' E 000°51'910.3
2016-Jun-23 01:33N 53°58' E 000°43'1110.8
2016-Jun-23 00:33N 53°49' E 000°33'1211.6
2016-Jun-22 23:33N 53°39' E 000°23'1010.4
2016-Jun-22 22:33N 53°33' E 000°09'1313.4
2016-Jun-22 21:34N 53°39' W 000°11'1010.3
2016-Jun-22 20:33N 53°42' W 000°28'8 7.8
2016-Jun-22 19:32N 53°42' W 000°41'2 0.0
2016-Jun-20 18:22N 53°42' W 000°45'8 8.6
2016-Jun-20 17:26N 53°41' W 000°32'8 9.4
2016-Jun-20 16:33N 53°43' W 000°19'9 9.0
2016-Jun-20 15:33N 53°38' W 000°07'1110.9
2016-Jun-20 14:34N 53°33' E 000°09'9 9.2
2016-Jun-20 13:33N 53°33' E 000°25'  
Track history (hours):
 
Tides and Currents Weather Stations Pressure Air Temp Water Temp Dewpoint Dewpoint Depression Visibility Wind Speed Wind Dir Waves Ship Positions

Kine

Last reported at 2016-Jun-30 08:33 UTC. Time now 2016-Jun-30 08:49 UTC.
Position N 58°59' E 005°33'.

Length 89 m; draft 5 m.

Type: Cargo ship. MMSI: 311117000.

Date/timePositionNaut miles runAvg speedWind from/ knotsBaromVisibWave heightAir tempDewpointWater temp
2016-Jun-30 08:33N 58°59' E 005°33'8 8.2
2016-Jun-30 07:33N 58°51' E 005°30'9 9.4
2016-Jun-30 06:33N 58°42' E 005°27'1110.7
2016-Jun-30 05:33N 58°31' E 005°33'1010.2
2016-Jun-30 04:33N 58°21' E 005°37'180 9.8
2016-Jun-29 10:11N 55°27' E 006°57'16 9.9
2016-Jun-29 08:34N 55°11' E 007°04'10 9.9
2016-Jun-29 07:33N 55°01' E 007°07'1010.1
2016-Jun-29 06:33N 54°52' E 007°11'20 9.8
2016-Jun-29 04:33N 54°32' E 007°20'9 9.2
2016-Jun-29 03:33N 54°23' E 007°23'9 9.0
2016-Jun-29 02:33N 54°15' E 007°27'9 8.9
2016-Jun-29 01:33N 54°07' E 007°33'9 9.3
2016-Jun-29 00:33N 53°59' E 007°40'9 8.6
2016-Jun-28 23:27N 53°52' E 007°53'1010.4
2016-Jun-28 22:30N 53°48' E 008°08'1212.4
2016-Jun-28 21:33N 53°40' E 008°22'1111.1
2016-Jun-28 20:33N 53°31' E 008°32'1110.9
2016-Jun-28 19:33N 53°20' E 008°30'9 8.7
2016-Jun-28 18:33N 53°11' E 008°32'8 8.0
2016-Jun-28 17:34N 53°07' E 008°43'2 2.2
2016-Jun-28 16:31N 53°06' E 008°46'0 0.0
2016-Jun-28 15:31N 53°06' E 008°46'0 0.0
2016-Jun-28 14:31N 53°06' E 008°46'0 0.0
2016-Jun-28 13:31N 53°06' E 008°46'0 0.0
2016-Jun-28 12:31N 53°06' E 008°46'0 0.0
2016-Jun-28 11:31N 53°06' E 008°46'0 0.0
2016-Jun-28 10:31N 53°06' E 008°46'0 0.0
2016-Jun-28 09:31N 53°06' E 008°46'0 0.0
2016-Jun-28 08:31N 53°06' E 008°46'0 0.0
2016-Jun-28 07:31N 53°06' E 008°46'0 0.0
2016-Jun-28 06:31N 53°06' E 008°46'8 4.1
2016-Jun-28 04:34N 53°10' E 008°35'9 8.7
2016-Jun-28 03:33N 53°18' E 008°29'1010.2
2016-Jun-28 02:33N 53°29' E 008°30'7 6.9
2016-Jun-28 01:34N 53°35' E 008°31'8 8.0
2016-Jun-28 00:33N 53°41' E 008°21'8 8.0
2016-Jun-27 23:33N 53°46' E 008°11'8 7.7
2016-Jun-27 22:33N 53°51' E 008°01'5 4.8
2016-Jun-27 21:34N 53°55' E 007°58'9 8.5
2016-Jun-27 20:33N 54°01' E 008°08'1111.3
2016-Jun-27 19:32N 53°59' E 008°28'1010.6
2016-Jun-27 18:33N 53°53' E 008°42'8 8.5
2016-Jun-27 17:33N 53°51' E 008°56'8 7.7
2016-Jun-27 16:33N 53°53' E 009°09'1 1.2
2016-Jun-27 15:31N 53°53' E 009°11'0 0.0
2016-Jun-27 14:31N 53°53' E 009°11'0 0.0
2016-Jun-27 13:31N 53°53' E 009°11'0 0.0
2016-Jun-27 12:31N 53°53' E 009°11'0 0.0
2016-Jun-27 11:31N 53°53' E 009°11'0 0.0
2016-Jun-27 10:31N 53°53' E 009°11'0 0.0
2016-Jun-27 09:31N 53°53' E 009°11'0 0.0
2016-Jun-27 08:31N 53°53' E 009°11'0 0.0
2016-Jun-27 07:28N 53°53' E 009°11'0 0.0
2016-Jun-27 06:28N 53°53' E 009°11'0 0.0
2016-Jun-27 05:31N 53°53' E 009°11'0 0.0
2016-Jun-27 04:25N 53°53' E 009°11'0 0.0
2016-Jun-27 03:28N 53°53' E 009°11'0 0.0
2016-Jun-27 02:31N 53°53' E 009°11'0 0.0
2016-Jun-27 01:31N 53°53' E 009°11'0 0.0
2016-Jun-27 00:31N 53°53' E 009°11'0 0.0
2016-Jun-26 23:31N 53°53' E 009°11'0 0.0
2016-Jun-26 22:31N 53°53' E 009°11'0 0.0
2016-Jun-26 21:28N 53°53' E 009°11'0 0.0
2016-Jun-26 20:31N 53°53' E 009°11'0 0.0
2016-Jun-26 19:31N 53°53' E 009°11'0 0.0
2016-Jun-26 18:28N 53°53' E 009°11'0 0.0
2016-Jun-26 17:28N 53°53' E 009°11'0 0.0
2016-Jun-26 16:31N 53°53' E 009°11'0 0.0
2016-Jun-26 15:28N 53°53' E 009°11'0 0.0
2016-Jun-26 14:28N 53°53' E 009°11'0 0.1
2016-Jun-26 13:33N 53°53' E 009°11'1 0.9
2016-Jun-26 12:31N 53°52' E 009°09'0 0.0
2016-Jun-26 11:31N 53°52' E 009°09'0 0.0
2016-Jun-26 10:34N 53°52' E 009°09'0 0.0
2016-Jun-26 09:25N 53°52' E 009°09'0 0.0
2016-Jun-26 08:31N 53°52' E 009°09'0 0.0
2016-Jun-26 07:25N 53°52' E 009°09'1 0.9
2016-Jun-26 06:34N 53°53' E 009°08'9 9.0
2016-Jun-26 05:34N 53°50' E 008°53'9 8.6
2016-Jun-26 04:33N 53°55' E 008°41'9 9.2
2016-Jun-26 03:33N 53°59' E 008°26'9 9.4
2016-Jun-26 02:33N 53°59' E 008°11'1010.0
2016-Jun-26 01:33N 53°58' E 007°54'10 9.8
2016-Jun-26 00:33N 53°59' E 007°37'10 9.6
2016-Jun-25 23:33N 54°07' E 007°29'10 9.6
2016-Jun-25 22:33N 54°17' E 007°26'10 9.8
2016-Jun-25 21:33N 54°26' E 007°25'10 9.4
2016-Jun-25 20:33N 54°36' E 007°24'13 9.2
2016-Jun-25 19:09N 54°49' E 007°22'5 8.8
2016-Jun-25 18:33N 54°54' E 007°22'9 8.9
2016-Jun-25 17:33N 55°03' E 007°21'9 8.9
2016-Jun-25 16:33N 55°12' E 007°20'9 9.1
2016-Jun-25 15:33N 55°21' E 007°19'9 9.1
2016-Jun-25 14:33N 55°30' E 007°18'9 9.4
2016-Jun-25 13:33N 55°39' E 007°15'138 9.2
2016-Jun-24 22:33N 57°54' E 006°26'8 7.6
2016-Jun-24 21:32N 58°02' E 006°21'9 8.7
2016-Jun-24 20:34N 58°09' E 006°12'9 9.5
2016-Jun-24 19:33N 58°16' E 006°01'9 8.6
2016-Jun-24 18:33N 58°24' E 005°52'5 4.7
2016-Jun-24 17:33N 58°28' E 005°55'0 0.0
2016-Jun-24 16:28N 58°28' E 005°55'0 0.0
2016-Jun-24 15:28N 58°28' E 005°55'0 0.0
2016-Jun-24 14:28N 58°28' E 005°55'0 0.0
2016-Jun-24 13:19N 58°28' E 005°55'0 0.0
2016-Jun-24 12:31N 58°28' E 005°55'0 0.0
2016-Jun-24 11:31N 58°28' E 005°55'2 1.8
2016-Jun-24 10:33N 58°27' E 005°52'9 9.0
2016-Jun-24 09:33N 58°21' E 006°05'6 5.5
2016-Jun-24 08:33N 58°16' E 006°05'30510.1
2016-Jun-23 02:26N 54°06' E 000°51'910.3
2016-Jun-23 01:33N 53°58' E 000°43'1110.8
2016-Jun-23 00:33N 53°49' E 000°33'1211.6
2016-Jun-22 23:33N 53°39' E 000°23'1010.4
2016-Jun-22 22:33N 53°33' E 000°09'1313.4
2016-Jun-22 21:34N 53°39' W 000°11'1010.3
2016-Jun-22 20:33N 53°42' W 000°28'8 7.8
2016-Jun-22 19:32N 53°42' W 000°41'2 0.0
2016-Jun-20 18:22N 53°42' W 000°45'8 8.6
2016-Jun-20 17:26N 53°41' W 000°32'8 9.4
2016-Jun-20 16:33N 53°43' W 000°19'9 9.0
2016-Jun-20 15:33N 53°38' W 000°07'1110.9
2016-Jun-20 14:34N 53°33' E 000°09'9 9.2
2016-Jun-20 13:33N 53°33' E 000°25'  

Dump ship's entire track history